Hope, Rhode Island
Current Conditions -  °F | °C
As of 1:51 PM on Thursday 30 Oct 2014 (Local Time) from KPVD Reporting Station
Scattered Clouds Scattered Clouds  
Wind Chill: 60°   Ceiling: Unl
Heat Index: 60°   Visibility: 10mi
Dew Point: 35°   Wind: 6mph
Humidity: 39%   Direction: NA
Pressure: 29.92"   Gusts: 16mph
Location:  41.73°N, 71.56°W
Report Text: KPVD 301751Z VRB05G14KT 10SM FEW060 FEW070 SCT250 16/02 A2992 RMK AO2 SLP133 T01560017 10161 20067 56011
Loading
Personal Weather Stations






























Interactive Weather Map
Tropical Storm Tracking
New forecast layout! Learn more

10-Day Weather Forecast

Advertisements
Track Severe Weather on mobile